Lothian, MD

5:17 AM EDT on September 02, 2014 (GMT -0400)
Andrews Air Force Base-Naf | Change Station
CLOSE
Current Station
Airport
Location: Andrews AFB,
Elevation: 282 ft
Nearby Weather Stations

Elev 282 ft 38.81 °N, 76.87 °W | Updated 19 minutes ago

Clear
Clear
75 °F
Feels Like 75 °F
N
6
Wind Variable Wind from SW

Today
High -- | Low -- °F
--% Chance of Precip.
Yesterday
High -- | Low -- °F
Precip. -- in
6:36 AM 7:35 PM
Waxing Crescent, 49% visible
Pressure 29.96 in
Visibility 10.0 miles
Clouds Clear
Dew Point 72 °F
Humidity 88%
Rainfall 0.00 in
Snow Depth Not available.
UV 0 out of 12
Pollen 7.50 out of 12
Air Quality Not available.
Flu Activity Not available.
METAR KADW 020858Z AUTO 23005KT 10SM CLR 24/22 A2995 RMK AO2 SLP146 T02410220 57008 $

More Conditions Fewer Conditions

Pressure 29.96 in
Visibility 10.0 miles
Clouds Clear
Dew Point 72 °F
Humidity 88%
Rainfall 0.00 in
Snow Depth Not available.
UV 0 out of 12
Pollen 7.50 out of 12
Air Quality Not available.
Flu Activity Not available.
METAR KADW 020858Z AUTO 23005KT 10SM CLR 24/22 A2995 RMK AO2 SLP146 T02410220 57008 $

More Conditions Fewer Conditions

10-Day Weather Forecast

Almanac

Astronomy

Sep. 02, 2014 Rise Set
Actual Time 6:36 AM EDT 7:35 PM EDT
Civil Twilight 6:09 AM EDT 8:02 PM EDT
Nautical Twilight 5:36 AM EDT 8:34 PM EDT
Astronomical Twilight 5:03 AM EDT 9:08 PM EDT
Moon 2:14 PM EDT No Moon Set
Length of Visible Light 13h 53m
Length of Day
12h 58m
Tomorrow will be 2m 25s shorter.
Waxing Crescent, 49% of the Moon is Illuminated
Today
Waxing Crescent
Sep 2
First Quarter
Sep 8
Full
Sep 15
Last Quarter
Sep 24
New

Today's Extremes

State Highs State Lows

Community

WunderPhotos

Upload Photos

1,749,587 photos uploaded!

WunderBlogs® & News

Nearby

Snow Depth

Station Depth Elevation
No new snow has been reported.

Earthquake Activity

City Distance Mag. Time & Date
No recent earthquake activity has been reported nearby.
Minimum magnitude displayed is 2.5.

Coastal Water Temperatures

Place Temperature
Cambridge, MD 80.1 °F
Tolchester Beach, MD 81.0 °F
Baltimore, MD 82.0 °F

Nearby Weather Stations